createdAt,value
2023-02-06T00:01:18.102Z,82.67
2023-02-06T00:03:45.070Z,78.30
2023-02-06T00:06:11.899Z,81.20
2023-02-06T00:08:38.770Z,82.37
2023-02-06T00:11:07.588Z,95.67
2023-02-06T00:13:35.666Z,87.83
2023-02-06T00:16:03.478Z,89.33
2023-02-06T00:18:32.120Z,83.53
2023-02-06T00:20:58.989Z,83.87
2023-02-06T00:23:25.940Z,84.57
2023-02-06T00:25:52.792Z,83.60
2023-02-06T00:28:19.730Z,80.17
2023-02-06T00:30:47.819Z,84.50
2023-02-06T00:33:14.729Z,88.57
2023-02-06T00:35:41.540Z,84.90
2023-02-06T00:38:12.595Z,87.07
2023-02-06T00:40:39.448Z,82.33
2023-02-06T00:43:06.350Z,79.53
2023-02-06T00:45:33.496Z,82.10
2023-02-06T00:48:01.116Z,83.47
2023-02-06T00:50:28.058Z,82.00
2023-02-06T00:52:55.055Z,83.40
2023-02-06T00:55:21.948Z,81.33
2023-02-06T00:58:01.266Z,82.47
2023-02-06T01:00:28.080Z,84.83
2023-02-06T01:02:54.951Z,82.87
2023-02-06T01:05:21.855Z,88.00
2023-02-06T01:07:48.770Z,85.47
2023-02-06T01:10:16.162Z,92.90
2023-02-06T01:12:43.137Z,103.27
2023-02-06T01:15:11.941Z,96.67
2023-02-06T01:17:39.945Z,94.83
2023-02-06T01:20:09.766Z,87.50
2023-02-06T01:22:37.275Z,94.07
2023-02-06T01:25:04.607Z,87.47
2023-02-06T01:27:31.733Z,89.07
2023-02-06T01:29:58.557Z,84.97
2023-02-06T01:32:25.395Z,86.07
2023-02-06T01:34:52.173Z,89.33
2023-02-06T01:37:18.954Z,84.80
2023-02-06T01:39:45.745Z,86.30
2023-02-06T01:42:13.321Z,85.30
2023-02-06T01:44:40.398Z,85.27
2023-02-06T01:47:11.050Z,83.67
2023-02-06T01:49:50.067Z,87.37
2023-02-06T01:52:31.527Z,88.83
2023-02-06T01:55:03.942Z,76.70
2023-02-06T01:57:31.885Z,87.70
2023-02-06T02:00:02.837Z,81.93
2023-02-06T02:02:32.409Z,85.47
2023-02-06T02:05:01.664Z,82.93
2023-02-06T02:07:33.298Z,84.93
2023-02-06T02:10:00.184Z,83.73
2023-02-06T02:12:27.067Z,80.07
2023-02-06T02:14:55.074Z,86.47
2023-02-06T02:17:21.944Z,84.47
2023-02-06T02:19:57.620Z,82.73
2023-02-06T02:22:36.615Z,85.77
2023-02-06T02:25:33.854Z,83.63
2023-02-06T02:28:25.118Z,76.03
2023-02-06T02:31:19.084Z,84.00
2023-02-06T02:34:20.349Z,83.97
2023-02-06T02:37:03.267Z,81.37
2023-02-06T02:39:48.151Z,74.53
2023-02-06T02:42:42.374Z,80.53
2023-02-06T02:45:25.035Z,80.63
2023-02-06T02:48:16.889Z,76.83
2023-02-06T02:50:44.444Z,83.27
2023-02-06T02:53:13.287Z,70.73
2023-02-06T02:55:40.108Z,69.40
2023-02-06T02:58:10.724Z,67.80
2023-02-06T03:00:43.387Z,76.03
2023-02-06T03:03:12.987Z,73.73
2023-02-06T03:05:51.347Z,75.63
2023-02-06T03:08:28.278Z,77.37
2023-02-06T03:11:10.118Z,76.07
2023-02-06T03:14:22.376Z,71.03
2023-02-06T03:16:58.255Z,74.10
2023-02-06T03:19:31.869Z,75.90
2023-02-06T03:22:00.446Z,78.93
2023-02-06T03:24:32.844Z,73.37
2023-02-06T03:27:02.330Z,75.60
2023-02-06T03:29:32.961Z,75.57
2023-02-06T03:32:30.672Z,80.27
2023-02-06T03:35:09.393Z,72.93
2023-02-06T03:37:37.752Z,71.07
2023-02-06T03:40:06.251Z,73.40
2023-02-06T03:42:35.029Z,72.50
2023-02-06T03:45:06.968Z,85.67
2023-02-06T03:47:36.688Z,83.00
2023-02-06T03:50:06.577Z,84.90
2023-02-06T03:52:39.479Z,77.07
2023-02-06T03:55:13.821Z,75.13
2023-02-06T03:57:44.044Z,72.43
2023-02-06T04:00:11.897Z,78.27
2023-02-06T04:02:39.560Z,77.03
2023-02-06T04:05:18.531Z,78.87
2023-02-06T04:07:45.465Z,75.13
2023-02-06T04:10:12.383Z,82.57
2023-02-06T04:12:39.593Z,75.43
2023-02-06T04:15:06.756Z,89.27
2023-02-06T04:17:49.791Z,78.53
2023-02-06T04:20:20.922Z,86.27
2023-02-06T04:22:48.000Z,82.90
2023-02-06T04:25:15.168Z,87.67
2023-02-06T04:27:41.994Z,84.03
2023-02-06T04:30:09.548Z,84.87
2023-02-06T04:32:39.237Z,86.40
2023-02-06T04:35:06.242Z,93.07
2023-02-06T04:37:33.193Z,91.13
2023-02-06T04:40:00.021Z,103.77
2023-02-06T04:42:27.067Z,106.43
2023-02-06T04:44:55.267Z,108.77
2023-02-06T04:47:22.138Z,104.37
2023-02-06T04:49:48.926Z,105.00
2023-02-06T04:55:01.397Z,99.13
2023-02-06T04:57:28.221Z,107.13
2023-02-06T04:59:55.028Z,101.37
2023-02-06T05:02:21.863Z,99.93
2023-02-06T05:04:48.741Z,96.53
2023-02-06T05:07:15.524Z,98.77
2023-02-06T05:09:42.292Z,96.27
2023-02-06T05:12:09.300Z,87.87
2023-02-06T05:14:36.110Z,92.13
2023-02-06T05:17:02.931Z,80.00
2023-02-06T05:19:29.750Z,80.80
2023-02-06T05:21:56.556Z,81.40
2023-02-06T05:24:23.362Z,74.83
2023-02-06T05:26:50.207Z,87.80
2023-02-06T05:29:17.052Z,81.67
2023-02-06T05:31:44.580Z,81.40
2023-02-06T05:34:11.394Z,90.70
2023-02-06T05:36:38.747Z,81.57
2023-02-06T05:39:05.625Z,93.83
2023-02-06T05:41:32.450Z,88.63
2023-02-06T05:43:59.426Z,90.57
2023-02-06T05:46:26.360Z,108.43
2023-02-06T05:48:53.183Z,103.47
2023-02-06T05:51:20.024Z,84.67
2023-02-06T05:53:46.856Z,87.23
2023-02-06T05:56:13.695Z,79.97
2023-02-06T05:58:40.547Z,90.17
2023-02-06T06:01:07.366Z,75.00
2023-02-06T06:03:34.244Z,91.00
2023-02-06T06:06:01.069Z,86.93
2023-02-06T06:08:27.834Z,78.83
2023-02-06T06:10:54.682Z,73.00
2023-02-06T06:13:21.627Z,82.73
2023-02-06T06:15:52.865Z,82.80
2023-02-06T06:18:20.921Z,76.87
2023-02-06T06:20:48.666Z,82.50
2023-02-06T06:23:15.541Z,78.73
2023-02-06T06:25:42.390Z,91.30
2023-02-06T06:28:09.251Z,91.10
2023-02-06T06:30:37.534Z,78.03
2023-02-06T06:33:04.860Z,78.83
2023-02-06T06:35:33.810Z,71.87
2023-02-06T06:38:00.715Z,79.27
2023-02-06T06:40:27.527Z,82.37
2023-02-06T06:42:54.348Z,74.97
2023-02-06T06:45:23.913Z,85.47
2023-02-06T06:47:50.761Z,86.33
2023-02-06T06:50:17.629Z,92.77
2023-02-06T06:52:44.447Z,89.03
2023-02-06T06:55:11.642Z,85.40
2023-02-06T06:57:38.472Z,89.63
2023-02-06T07:00:06.034Z,77.57
2023-02-06T07:02:32.910Z,84.87
2023-02-06T07:05:00.408Z,81.30
2023-02-06T07:07:27.383Z,78.37
2023-02-06T07:09:54.217Z,86.10
2023-02-06T07:12:21.196Z,78.33
2023-02-06T07:14:47.977Z,81.70
2023-02-06T07:17:14.856Z,81.17
2023-02-06T07:19:41.766Z,84.00
2023-02-06T07:22:09.001Z,85.03
2023-02-06T07:24:35.836Z,83.30
2023-02-06T07:27:08.292Z,82.07
2023-02-06T07:29:35.220Z,81.50
2023-02-06T07:32:02.127Z,91.00
2023-02-06T07:34:29.117Z,80.57
2023-02-06T07:37:00.140Z,85.93
2023-02-06T07:39:27.535Z,85.07
2023-02-06T07:41:54.381Z,78.37
2023-02-06T07:44:21.268Z,86.33
2023-02-06T07:46:48.085Z,82.87
2023-02-06T07:49:16.029Z,80.73
2023-02-06T07:51:44.339Z,88.67
2023-02-06T07:54:12.580Z,94.20
2023-02-06T07:56:44.985Z,92.43
2023-02-06T07:59:11.960Z,86.60
2023-02-06T08:01:38.782Z,90.30
2023-02-06T08:04:05.695Z,92.17
2023-02-06T08:06:32.679Z,88.27
2023-02-06T08:09:06.202Z,86.43
2023-02-06T08:11:33.374Z,78.83
2023-02-06T08:14:01.624Z,81.00
2023-02-06T08:16:28.797Z,74.63
2023-02-06T08:18:55.592Z,77.67
2023-02-06T08:21:24.559Z,72.53
2023-02-06T08:23:58.810Z,72.57
2023-02-06T08:26:27.517Z,75.43
2023-02-06T08:28:56.622Z,73.93
2023-02-06T08:31:29.013Z,64.93
2023-02-06T08:33:56.685Z,64.50
2023-02-06T08:36:24.524Z,69.63
2023-02-06T08:38:52.506Z,60.20
2023-02-06T08:41:20.696Z,68.47
2023-02-06T08:43:48.797Z,65.63
2023-02-06T08:46:17.365Z,64.83
2023-02-06T08:48:45.627Z,66.90
2023-02-06T08:51:13.164Z,62.83
2023-02-06T08:53:40.025Z,66.33
2023-02-06T08:56:12.242Z,75.37
2023-02-06T08:58:39.477Z,68.13
2023-02-06T09:01:13.700Z,66.53
2023-02-06T09:03:41.835Z,64.17
2023-02-06T09:06:10.606Z,61.77
2023-02-06T09:08:39.835Z,63.73
2023-02-06T09:11:15.946Z,68.27
2023-02-06T09:13:44.119Z,65.33
2023-02-06T09:16:12.130Z,64.87
2023-02-06T09:18:39.484Z,63.30
2023-02-06T09:21:12.163Z,64.20
2023-02-06T09:23:45.820Z,62.80
2023-02-06T09:26:15.214Z,61.37
2023-02-06T09:28:42.010Z,64.60
2023-02-06T09:31:09.351Z,61.17
2023-02-06T09:33:38.025Z,62.57
2023-02-06T09:36:07.852Z,66.03
2023-02-06T09:38:35.639Z,66.27
2023-02-06T09:41:06.265Z,61.77
2023-02-06T09:43:34.717Z,63.47
2023-02-06T09:46:04.547Z,60.80
2023-02-06T09:48:36.232Z,63.73
2023-02-06T09:51:25.864Z,57.47
2023-02-06T09:54:18.519Z,65.23
2023-02-06T09:57:00.323Z,63.13
2023-02-06T09:59:47.011Z,65.53
2023-02-06T10:02:22.590Z,59.37
2023-02-06T10:05:22.830Z,65.10
2023-02-06T10:08:01.584Z,62.53
2023-02-06T10:10:55.972Z,68.97
2023-02-06T10:13:50.606Z,61.90
2023-02-06T10:16:39.754Z,63.43
2023-02-06T10:19:20.997Z,67.07
2023-02-06T10:22:13.843Z,62.13
2023-02-06T10:25:15.949Z,61.27
2023-02-06T10:27:45.738Z,67.30
2023-02-06T10:30:22.440Z,62.47
2023-02-06T10:32:59.326Z,63.33
2023-02-06T10:35:39.778Z,63.77
2023-02-06T10:38:12.792Z,60.30
2023-02-06T10:41:05.970Z,65.87
2023-02-06T10:43:48.020Z,64.97
2023-02-06T10:46:36.867Z,60.90
2023-02-06T10:49:11.827Z,66.90
2023-02-06T10:51:45.337Z,56.10
2023-02-06T10:54:35.518Z,63.67
2023-02-06T10:57:03.208Z,61.63
2023-02-06T10:59:38.947Z,63.00
2023-02-06T11:02:34.087Z,60.27
2023-02-06T11:05:01.800Z,59.00
2023-02-06T11:07:32.670Z,56.87
2023-02-06T11:10:00.067Z,58.90
2023-02-06T11:12:39.969Z,61.40
2023-02-06T11:15:19.423Z,60.83
2023-02-06T11:17:46.453Z,60.90
2023-02-06T11:20:29.484Z,59.87
2023-02-06T11:22:56.754Z,58.37
2023-02-06T11:25:31.925Z,59.17
2023-02-06T11:28:06.179Z,53.37
2023-02-06T11:30:36.945Z,55.93
2023-02-06T11:33:36.547Z,58.47
2023-02-06T11:36:05.301Z,60.57
2023-02-06T11:38:32.866Z,58.07
2023-02-06T11:41:18.495Z,57.27
2023-02-06T11:43:56.182Z,57.40
2023-02-06T11:46:43.232Z,55.90
2023-02-06T11:49:19.152Z,49.07
2023-02-06T11:51:49.629Z,49.67
2023-02-06T11:54:28.366Z,51.43
2023-02-06T11:57:07.832Z,44.03
2023-02-06T11:59:37.080Z,44.47
2023-02-06T12:02:28.094Z,40.07
2023-02-06T12:05:16.461Z,38.53
2023-02-06T12:07:52.372Z,36.37
2023-02-06T12:10:21.557Z,38.47
2023-02-06T12:13:00.257Z,36.20
2023-02-06T12:15:46.908Z,35.37
2023-02-06T12:18:23.997Z,33.47
2023-02-06T12:21:01.774Z,34.83
2023-02-06T12:23:33.917Z,39.07
2023-02-06T12:26:04.624Z,38.83
2023-02-06T12:28:45.991Z,34.73
2023-02-06T12:31:36.651Z,40.70
2023-02-06T12:34:56.319Z,38.53
2023-02-06T12:37:56.288Z,36.87
2023-02-06T12:40:58.943Z,39.87
2023-02-06T12:43:27.470Z,44.00
2023-02-06T12:46:01.600Z,42.27
2023-02-06T12:48:37.549Z,39.87
2023-02-06T12:51:17.149Z,41.87
2023-02-06T12:53:56.275Z,48.27
2023-02-06T12:56:47.738Z,42.27
2023-02-06T12:59:57.224Z,49.50
2023-02-06T13:03:01.912Z,47.03
2023-02-06T13:05:36.069Z,50.27
2023-02-06T13:08:10.634Z,51.57
2023-02-06T13:10:38.881Z,46.13
2023-02-06T13:13:06.108Z,54.67
2023-02-06T13:15:40.162Z,44.80
2023-02-06T13:18:41.261Z,48.07
2023-02-06T13:21:22.749Z,55.07
2023-02-06T13:23:52.192Z,61.47
2023-02-06T13:26:19.153Z,53.93
2023-02-06T13:28:56.102Z,57.30
2023-02-06T13:31:28.405Z,57.30
2023-02-06T13:34:01.672Z,58.73
2023-02-06T13:36:50.574Z,57.00
2023-02-06T13:39:32.540Z,58.43
2023-02-06T13:42:22.331Z,58.27
2023-02-06T13:44:50.651Z,59.67
2023-02-06T13:47:32.422Z,57.23
2023-02-06T13:50:23.497Z,58.00
2023-02-06T13:53:18.832Z,54.40
2023-02-06T13:56:07.665Z,61.70
2023-02-06T13:58:39.923Z,63.40
2023-02-06T14:01:14.603Z,60.80
2023-02-06T14:03:50.470Z,62.97
2023-02-06T14:06:36.539Z,62.40
2023-02-06T14:09:58.906Z,65.10
2023-02-06T14:12:49.180Z,63.57
2023-02-06T14:15:49.418Z,61.03
2023-02-06T14:18:25.201Z,65.63
2023-02-06T14:21:16.384Z,70.03
2023-02-06T14:24:06.019Z,65.77
2023-02-06T14:27:27.284Z,67.40
2023-02-06T14:30:26.693Z,67.40
2023-02-06T14:33:43.740Z,64.40
2023-02-06T14:36:42.310Z,73.50
2023-02-06T14:39:46.262Z,75.17
2023-02-06T14:42:24.443Z,89.60
2023-02-06T14:44:59.313Z,84.47
2023-02-06T14:47:31.884Z,88.43
2023-02-06T14:50:00.889Z,84.27
2023-02-06T14:52:31.374Z,87.00
2023-02-06T14:54:58.177Z,97.07
2023-02-06T14:57:34.074Z,94.33
2023-02-06T15:00:16.756Z,95.00
2023-02-06T15:02:43.638Z,92.67
2023-02-06T15:05:25.086Z,98.53
2023-02-06T15:08:00.420Z,102.73
2023-02-06T15:10:30.703Z,93.70
2023-02-06T15:12:58.009Z,94.73
2023-02-06T15:15:30.747Z,94.10
2023-02-06T15:18:16.386Z,90.77
2023-02-06T15:20:58.303Z,92.30
2023-02-06T15:23:53.135Z,98.87
2023-02-06T15:26:42.671Z,99.33
2023-02-06T15:29:26.852Z,108.83
2023-02-06T15:32:00.847Z,109.87
2023-02-06T15:34:28.016Z,105.50
2023-02-06T15:37:01.332Z,110.60
2023-02-06T15:39:39.097Z,109.73
2023-02-06T15:42:10.820Z,124.47
2023-02-06T15:44:38.739Z,118.47
2023-02-06T15:47:12.987Z,120.20
2023-02-06T15:49:52.737Z,119.53
2023-02-06T15:52:48.533Z,127.40
2023-02-06T15:55:28.044Z,120.37
2023-02-06T15:57:57.078Z,120.37
2023-02-06T16:00:31.793Z,128.87
2023-02-06T16:03:04.608Z,122.00
2023-02-06T16:05:37.352Z,127.93
2023-02-06T16:08:10.849Z,125.23
2023-02-06T16:10:39.582Z,124.63
2023-02-06T16:13:14.779Z,132.33
2023-02-06T16:16:09.908Z,126.03
2023-02-06T16:18:39.170Z,134.00
2023-02-06T16:21:18.215Z,128.07
2023-02-06T16:24:06.927Z,129.57
2023-02-06T16:26:42.759Z,126.47
2023-02-06T16:29:09.558Z,120.17
2023-02-06T16:31:39.976Z,114.47
2023-02-06T16:34:22.961Z,110.77
2023-02-06T16:36:49.850Z,120.53
2023-02-06T16:39:22.008Z,112.87
2023-02-06T16:41:52.091Z,109.60
2023-02-06T16:44:20.284Z,115.37
2023-02-06T16:46:47.220Z,113.37
2023-02-06T16:49:17.052Z,111.90
2023-02-06T16:51:45.920Z,107.83
2023-02-06T16:54:31.120Z,108.50
2023-02-06T16:57:21.321Z,110.07
2023-02-06T16:59:51.513Z,106.17
2023-02-06T17:02:18.450Z,102.87
2023-02-06T17:04:45.465Z,101.70
2023-02-06T17:07:24.441Z,97.50
2023-02-06T17:09:56.830Z,102.73
2023-02-06T17:12:23.964Z,97.00
2023-02-06T17:14:51.033Z,109.40
2023-02-06T17:17:20.249Z,105.17
2023-02-06T17:19:47.688Z,103.90
2023-02-06T17:22:14.774Z,106.90
2023-02-06T17:24:42.518Z,102.43
2023-02-06T17:27:17.294Z,104.50
2023-02-06T17:29:47.274Z,109.23
2023-02-06T17:32:16.262Z,100.83
2023-02-06T17:34:43.284Z,103.47
2023-02-06T17:37:20.625Z,104.40
2023-02-06T17:39:52.060Z,100.80
2023-02-06T17:42:21.863Z,103.83
2023-02-06T17:44:48.825Z,105.37
2023-02-06T17:47:15.654Z,106.37
2023-02-06T17:49:42.585Z,103.03
2023-02-06T17:52:09.594Z,115.37
2023-02-06T17:54:36.416Z,94.90
2023-02-06T17:57:03.437Z,107.90
2023-02-06T17:59:30.316Z,114.10
2023-02-06T18:01:57.373Z,104.03
2023-02-06T18:04:24.763Z,123.80
2023-02-06T18:06:51.696Z,116.53
2023-02-06T18:09:18.763Z,114.43
2023-02-06T18:11:45.849Z,118.07
2023-02-06T18:14:12.884Z,110.60
2023-02-06T18:16:42.910Z,122.67
2023-02-06T18:19:10.527Z,112.60
2023-02-06T18:21:37.558Z,116.70
2023-02-06T18:24:05.667Z,113.90
2023-02-06T18:26:32.646Z,121.80
2023-02-06T18:28:59.564Z,123.67
2023-02-06T18:31:33.335Z,121.30
2023-02-06T18:34:03.191Z,114.70
2023-02-06T18:36:30.278Z,116.20
2023-02-06T18:38:57.623Z,124.90
2023-02-06T18:41:43.124Z,118.73
2023-02-06T18:44:11.298Z,124.87
2023-02-06T18:46:39.208Z,124.43
2023-02-06T18:49:06.379Z,121.37
2023-02-06T18:51:33.616Z,126.00
2023-02-06T18:54:01.245Z,125.53
2023-02-06T18:56:28.155Z,126.53
2023-02-06T18:58:56.204Z,118.47
2023-02-06T19:01:25.019Z,125.10
2023-02-06T19:03:52.988Z,126.67
2023-02-06T19:06:41.360Z,119.73
2023-02-06T19:09:08.720Z,128.57
2023-02-06T19:11:38.716Z,117.93
2023-02-06T19:14:07.946Z,129.13
2023-02-06T19:16:38.406Z,125.13
2023-02-06T19:19:18.291Z,122.27
2023-02-06T19:21:46.878Z,129.50
2023-02-06T19:24:15.780Z,127.33
2023-02-06T19:26:55.582Z,141.07
2023-02-06T19:29:34.615Z,118.37
2023-02-06T19:32:05.114Z,125.87
2023-02-06T19:34:39.096Z,125.73
2023-02-06T19:37:08.965Z,126.53
2023-02-06T19:39:38.074Z,133.90
2023-02-06T19:42:06.996Z,131.40
2023-02-06T19:44:34.178Z,137.60
2023-02-06T19:47:01.540Z,130.07
2023-02-06T19:49:28.805Z,127.93
2023-02-06T19:51:55.700Z,127.03
2023-02-06T19:54:22.557Z,137.20
2023-02-06T19:56:49.573Z,134.97
2023-02-06T19:59:21.762Z,109.93
2023-02-06T20:01:55.024Z,124.07
2023-02-06T20:04:25.049Z,121.63
2023-02-06T20:06:52.672Z,125.33
2023-02-06T20:09:20.579Z,128.03
2023-02-06T20:11:49.150Z,127.60
2023-02-06T20:14:17.297Z,120.00
2023-02-06T20:16:45.386Z,118.70
2023-02-06T20:19:15.708Z,126.70
2023-02-06T20:21:46.026Z,126.83
2023-02-06T20:24:15.755Z,118.87
2023-02-06T20:26:43.283Z,119.97
2023-02-06T20:29:20.032Z,116.77
2023-02-06T20:31:47.095Z,121.53
2023-02-06T20:34:14.129Z,120.90
2023-02-06T20:36:41.976Z,123.97
2023-02-06T20:39:12.193Z,113.90
2023-02-06T20:41:40.055Z,122.23
2023-02-06T20:44:07.884Z,118.97
2023-02-06T20:46:36.715Z,121.57
2023-02-06T20:49:06.068Z,118.53
2023-02-06T20:51:33.112Z,115.93
2023-02-06T20:53:59.975Z,119.93
2023-02-06T20:56:27.279Z,120.80
2023-02-06T20:58:54.212Z,121.63
2023-02-06T21:01:24.471Z,121.60
2023-02-06T21:03:54.512Z,124.57
2023-02-06T21:06:21.989Z,129.60
2023-02-06T21:08:57.317Z,122.07
2023-02-06T21:11:29.330Z,111.47
2023-02-06T21:13:58.101Z,125.47
2023-02-06T21:16:26.496Z,114.93
2023-02-06T21:18:54.070Z,113.30
2023-02-06T21:21:21.376Z,114.63
2023-02-06T21:23:48.637Z,115.83
2023-02-06T21:26:17.956Z,120.13
2023-02-06T21:28:48.824Z,119.80
2023-02-06T21:31:25.156Z,123.00
2023-02-06T21:33:52.661Z,108.83
2023-02-06T21:36:21.281Z,112.97
2023-02-06T21:38:48.751Z,123.37
2023-02-06T21:41:18.537Z,128.60
2023-02-06T21:43:45.951Z,132.43
2023-02-06T21:46:13.517Z,132.33
2023-02-06T21:48:41.207Z,138.20
2023-02-06T21:51:13.271Z,136.43
2023-02-06T21:53:41.621Z,152.73
2023-02-06T21:56:17.504Z,138.60
2023-02-06T21:58:44.788Z,157.63
2023-02-06T22:01:20.541Z,148.70
2023-02-06T22:03:48.030Z,165.40
2023-02-06T22:06:15.566Z,158.90
2023-02-06T22:08:45.274Z,159.30
2023-02-06T22:11:17.690Z,164.77
2023-02-06T22:13:45.735Z,173.20
2023-02-06T22:16:14.588Z,175.00
2023-02-06T22:18:41.917Z,169.80
2023-02-06T22:21:22.653Z,172.63
2023-02-06T22:23:52.398Z,171.53
2023-02-06T22:26:21.527Z,157.77
2023-02-06T22:28:49.002Z,151.73
2023-02-06T22:31:17.788Z,163.50
2023-02-06T22:33:44.983Z,161.23
2023-02-06T22:36:15.699Z,153.87
2023-02-06T22:38:45.466Z,153.37
2023-02-06T22:41:15.925Z,160.47
2023-02-06T22:43:44.341Z,157.53
2023-02-06T22:46:23.102Z,160.77
2023-02-06T22:48:50.180Z,158.23
2023-02-06T22:51:17.468Z,167.93
2023-02-06T22:53:44.785Z,164.60
2023-02-06T22:56:27.360Z,155.70
2023-02-06T22:59:03.860Z,140.73
2023-02-06T23:01:34.073Z,140.43
2023-02-06T23:04:02.473Z,139.97
2023-02-06T23:06:31.865Z,139.17
2023-02-06T23:09:00.054Z,129.80
2023-02-06T23:11:28.316Z,137.80
2023-02-06T23:13:57.936Z,129.07
2023-02-06T23:16:25.001Z,137.97
2023-02-06T23:18:52.276Z,128.30
2023-02-06T23:21:21.160Z,126.83
2023-02-06T23:23:48.244Z,125.13
2023-02-06T23:26:16.947Z,113.03
2023-02-06T23:28:44.108Z,118.07
2023-02-06T23:31:12.303Z,116.77
2023-02-06T23:33:39.374Z,114.13
2023-02-06T23:36:11.784Z,113.60
2023-02-06T23:38:39.694Z,112.60
2023-02-06T23:41:12.005Z,110.57
2023-02-06T23:43:39.757Z,110.97
2023-02-06T23:46:07.562Z,111.07
2023-02-06T23:48:35.302Z,109.23
2023-02-06T23:51:02.869Z,108.40
2023-02-06T23:53:29.868Z,112.17
2023-02-06T23:55:57.849Z,103.40
2023-02-06T23:58:24.874Z,101.87
